sensor_id;sensor_type;location;lat;lon;timestamp;pressure;altitude;pressure_sealevel;temperature;humidity
12879;BME280;20617;49.476;10.986;2022-09-09T00:00:36;97904.91;;;17.19;95.62
12879;BME280;20617;49.476;10.986;2022-09-09T00:02:45;97909.47;;;17.17;95.88
12879;BME280;20617;49.476;10.986;2022-09-09T00:05:04;97901.69;;;17.15;96.02
12879;BME280;20617;49.476;10.986;2022-09-09T00:07:21;97901.91;;;17.12;96.44
12879;BME280;20617;49.476;10.986;2022-09-09T00:09:31;97898.44;;;17.12;96.65
12879;BME280;20617;49.476;10.986;2022-09-09T00:11:42;97896.16;;;17.07;97.25
12879;BME280;20617;49.476;10.986;2022-09-09T00:13:52;97896.38;;;17.04;97.25
12879;BME280;20617;49.476;10.986;2022-09-09T00:16:02;97896.75;;;17.00;97.71
12879;BME280;20617;49.476;10.986;2022-09-09T00:18:16;97892.53;;;16.97;97.98
12879;BME280;20617;49.476;10.986;2022-09-09T00:20:32;97887.59;;;16.92;98.00
12879;BME280;20617;49.476;10.986;2022-09-09T00:22:46;97891.28;;;16.90;98.50
12879;BME280;20617;49.476;10.986;2022-09-09T00:24:53;97892.25;;;16.89;98.81
12879;BME280;20617;49.476;10.986;2022-09-09T00:27:03;97892.38;;;16.87;99.10
12879;BME280;20617;49.476;10.986;2022-09-09T00:29:16;97893.44;;;16.85;99.49
12879;BME280;20617;49.476;10.986;2022-09-09T00:31:28;97895.03;;;16.87;98.88
12879;BME280;20617;49.476;10.986;2022-09-09T00:33:34;97887.84;;;16.89;98.81
12879;BME280;20617;49.476;10.986;2022-09-09T00:35:44;97892.41;;;16.98;98.04
12879;BME280;20617;49.476;10.986;2022-09-09T00:37:52;97890.28;;;17.04;97.75
12879;BME280;20617;49.476;10.986;2022-09-09T00:40:00;97887.66;;;17.04;97.60
12879;BME280;20617;49.476;10.986;2022-09-09T00:42:14;97887.66;;;17.04;97.65
12879;BME280;20617;49.476;10.986;2022-09-09T00:44:27;97893.88;;;17.03;97.77
12879;BME280;20617;49.476;10.986;2022-09-09T00:46:51;97891.47;;;17.00;98.12
12879;BME280;20617;49.476;10.986;2022-09-09T00:49:04;97882.34;;;16.92;98.73
12879;BME280;20617;49.476;10.986;2022-09-09T00:51:25;97890.25;;;16.92;98.54
12879;BME280;20617;49.476;10.986;2022-09-09T00:53:36;97890.38;;;16.91;98.75
12879;BME280;20617;49.476;10.986;2022-09-09T00:55:48;97886.03;;;16.90;98.75
12879;BME280;20617;49.476;10.986;2022-09-09T00:57:53;97889.75;;;16.87;98.70
12879;BME280;20617;49.476;10.986;2022-09-09T01:00:17;97888.06;;;16.86;98.44
12879;BME280;20617;49.476;10.986;2022-09-09T01:02:27;97883.88;;;16.84;98.68
12879;BME280;20617;49.476;10.986;2022-09-09T01:04:34;97884.22;;;16.79;98.93
12879;BME280;20617;49.476;10.986;2022-09-09T01:06:45;97890.59;;;16.75;99.04
12879;BME280;20617;49.476;10.986;2022-09-09T01:09:22;97895.16;;;16.73;99.39
12879;BME280;20617;49.476;10.986;2022-09-09T01:11:35;97897.03;;;16.71;99.41
12879;BME280;20617;49.476;10.986;2022-09-09T01:13:42;97894.28;;;16.72;98.94
12879;BME280;20617;49.476;10.986;2022-09-09T01:15:50;97890.59;;;16.75;98.79
12879;BME280;20617;49.476;10.986;2022-09-09T01:18:05;97897.59;;;16.76;98.96
12879;BME280;20617;49.476;10.986;2022-09-09T01:20:19;97893.59;;;16.70;99.42
12879;BME280;20617;49.476;10.986;2022-09-09T01:22:35;97894.41;;;16.71;99.02
12879;BME280;20617;49.476;10.986;2022-09-09T01:24:48;97903.28;;;16.70;98.98
12879;BME280;20617;49.476;10.986;2022-09-09T01:27:23;97898.44;;;16.64;99.30
12879;BME280;20617;49.476;10.986;2022-09-09T01:29:28;97904.88;;;16.60;99.50
12879;BME280;20617;49.476;10.986;2022-09-09T01:31:36;97905.00;;;16.58;99.72
12879;BME280;20617;49.476;10.986;2022-09-09T01:33:43;97902.69;;;16.53;99.86
12879;BME280;20617;49.476;10.986;2022-09-09T01:35:51;97905.41;;;16.52;100.00
12879;BME280;20617;49.476;10.986;2022-09-09T01:38:02;97901.56;;;16.45;100.00
12879;BME280;20617;49.476;10.986;2022-09-09T01:40:08;97896.31;;;16.45;100.00
12879;BME280;20617;49.476;10.986;2022-09-09T01:42:16;97900.59;;;16.46;100.00
12879;BME280;20617;49.476;10.986;2022-09-09T01:44:24;97898.63;;;16.49;100.00
12879;BME280;20617;49.476;10.986;2022-09-09T01:46:30;97900.16;;;16.52;100.00
12879;BME280;20617;49.476;10.986;2022-09-09T01:48:35;97897.22;;;16.57;99.19
12879;BME280;20617;49.476;10.986;2022-09-09T01:50:43;97898.03;;;16.57;98.94
12879;BME280;20617;49.476;10.986;2022-09-09T01:52:50;97892.69;;;16.59;98.71
12879;BME280;20617;49.476;10.986;2022-09-09T01:54:59;97892.34;;;16.63;98.35
12879;BME280;20617;49.476;10.986;2022-09-09T01:57:16;97898.22;;;16.67;97.77
12879;BME280;20617;49.476;10.986;2022-09-09T01:59:37;97894.41;;;16.71;97.43
12879;BME280;20617;49.476;10.986;2022-09-09T02:01:57;97891.06;;;16.69;97.23
12879;BME280;20617;49.476;10.986;2022-09-09T02:04:14;97884.00;;;16.69;96.78
12879;BME280;20617;49.476;10.986;2022-09-09T02:06:27;97889.91;;;16.73;96.90
12879;BME280;20617;49.476;10.986;2022-09-09T02:08:46;97889.72;;;16.76;96.06
12879;BME280;20617;49.476;10.986;2022-09-09T02:10:56;97890.41;;;16.78;95.67
12879;BME280;20617;49.476;10.986;2022-09-09T02:13:13;97888.66;;;16.79;95.60
12879;BME280;20617;49.476;10.986;2022-09-09T02:15:26;97890.53;;;16.77;95.27
12879;BME280;20617;49.476;10.986;2022-09-09T02:17:35;97888.19;;;16.72;95.94
12879;BME280;20617;49.476;10.986;2022-09-09T02:19:51;97883.91;;;16.71;95.83
12879;BME280;20617;49.476;10.986;2022-09-09T02:22:11;97887.72;;;16.67;96.00
12879;BME280;20617;49.476;10.986;2022-09-09T02:24:16;97885.19;;;16.65;96.05
12879;BME280;20617;49.476;10.986;2022-09-09T02:26:29;97883.53;;;16.64;95.92
12879;BME280;20617;49.476;10.986;2022-09-09T02:28:39;97883.53;;;16.64;95.65
12879;BME280;20617;49.476;10.986;2022-09-09T02:30:50;97879.84;;;16.67;95.69
12879;BME280;20617;49.476;10.986;2022-09-09T02:33:04;97877.69;;;16.72;95.54
12879;BME280;20617;49.476;10.986;2022-09-09T02:35:21;97876.56;;;16.76;95.22
12879;BME280;20617;49.476;10.986;2022-09-09T02:37:32;97863.41;;;16.76;94.73
12879;BME280;20617;49.476;10.986;2022-09-09T02:39:39;97878.22;;;16.77;95.21
12879;BME280;20617;49.476;10.986;2022-09-09T02:41:48;97881.06;;;16.74;95.33
12879;BME280;20617;49.476;10.986;2022-09-09T02:43:53;97884.75;;;16.71;95.25
12879;BME280;20617;49.476;10.986;2022-09-09T02:46:03;97887.22;;;16.62;96.32
12879;BME280;20617;49.476;10.986;2022-09-09T02:48:17;97886.16;;;16.64;96.12
12879;BME280;20617;49.476;10.986;2022-09-09T02:50:33;97885.28;;;16.64;96.64
12879;BME280;20617;49.476;10.986;2022-09-09T02:52:47;97896.31;;;16.69;96.42
12879;BME280;20617;49.476;10.986;2022-09-09T02:54:59;97888.34;;;16.70;96.38
12879;BME280;20617;49.476;10.986;2022-09-09T02:57:12;97883.06;;;16.70;95.91
12879;BME280;20617;49.476;10.986;2022-09-09T02:59:21;97877.06;;;16.68;96.42
12879;BME280;20617;49.476;10.986;2022-09-09T03:01:30;97881.00;;;16.63;96.53
12879;BME280;20617;49.476;10.986;2022-09-09T03:03:37;97885.41;;;16.62;97.04
12879;BME280;20617;49.476;10.986;2022-09-09T03:05:47;97894.13;;;16.63;96.99
12879;BME280;20617;49.476;10.986;2022-09-09T03:07:52;97895.78;;;16.64;96.52
12879;BME280;20617;49.476;10.986;2022-09-09T03:09:57;97891.28;;;16.66;96.71
12879;BME280;20617;49.476;10.986;2022-09-09T03:12:02;97884.00;;;16.69;96.40
12879;BME280;20617;49.476;10.986;2022-09-09T03:14:09;97882.94;;;16.72;96.18
12879;BME280;20617;49.476;10.986;2022-09-09T03:16:15;97884.63;;;16.73;96.04
12879;BME280;20617;49.476;10.986;2022-09-09T03:18:25;97886.41;;;16.72;95.87
12879;BME280;20617;49.476;10.986;2022-09-09T03:20:31;97883.06;;;16.70;96.06
12879;BME280;20617;49.476;10.986;2022-09-09T03:22:39;97885.09;;;16.67;96.46
12879;BME280;20617;49.476;10.986;2022-09-09T03:24:46;97882.66;;;16.64;96.50
12879;BME280;20617;49.476;10.986;2022-09-09T03:26:51;97878.59;;;16.60;96.69
12879;BME280;20617;49.476;10.986;2022-09-09T03:28:57;97878.06;;;16.55;98.01
12879;BME280;20617;49.476;10.986;2022-09-09T03:31:05;97870.53;;;16.50;98.69
12879;BME280;20617;49.476;10.986;2022-09-09T03:33:14;97876.34;;;16.42;99.30
12879;BME280;20617;49.476;10.986;2022-09-09T03:35:23;97881.38;;;16.45;98.96
12879;BME280;20617;49.476;10.986;2022-09-09T03:37:28;97880.44;;;16.46;98.63
12879;BME280;20617;49.476;10.986;2022-09-09T03:39:33;97878.22;;;16.40;98.93
12879;BME280;20617;49.476;10.986;2022-09-09T03:41:38;97880.38;;;16.35;99.51
12879;BME280;20617;49.476;10.986;2022-09-09T03:43:44;97878.81;;;16.33;99.83
12879;BME280;20617;49.476;10.986;2022-09-09T03:45:49;97875.34;;;16.32;99.89
12879;BME280;20617;49.476;10.986;2022-09-09T03:47:54;97878.81;;;16.33;100.00
12879;BME280;20617;49.476;10.986;2022-09-09T03:49:59;97881.31;;;16.34;99.74
12879;BME280;20617;49.476;10.986;2022-09-09T03:52:09;97883.84;;;16.36;99.78
12879;BME280;20617;49.476;10.986;2022-09-09T03:54:14;97878.56;;;16.36;99.57
12879;BME280;20617;49.476;10.986;2022-09-09T03:56:19;97884.66;;;16.36;100.00
12879;BME280;20617;49.476;10.986;2022-09-09T03:58:25;97875.81;;;16.37;99.92
12879;BME280;20617;49.476;10.986;2022-09-09T04:00:40;97875.72;;;16.39;99.36
12879;BME280;20617;49.476;10.986;2022-09-09T04:02:47;97872.88;;;16.42;99.16
12879;BME280;20617;49.476;10.986;2022-09-09T04:04:52;97878.00;;;16.43;99.35
12879;BME280;20617;49.476;10.986;2022-09-09T04:06:57;97867.63;;;16.42;99.19
12879;BME280;20617;49.476;10.986;2022-09-09T04:09:04;97877.06;;;16.44;99.30
12879;BME280;20617;49.476;10.986;2022-09-09T04:11:09;97862.88;;;16.47;98.69
12879;BME280;20617;49.476;10.986;2022-09-09T04:13:15;97871.38;;;16.50;98.54
12879;BME280;20617;49.476;10.986;2022-09-09T04:15:22;97868.13;;;16.47;98.87
12879;BME280;20617;49.476;10.986;2022-09-09T04:17:26;97866.06;;;16.39;98.91
12879;BME280;20617;49.476;10.986;2022-09-09T04:19:32;97870.56;;;16.37;99.34
12879;BME280;20617;49.476;10.986;2022-09-09T04:21:37;97872.94;;;16.29;99.83
12879;BME280;20617;49.476;10.986;2022-09-09T04:23:42;97883.44;;;16.29;100.00
12879;BME280;20617;49.476;10.986;2022-09-09T04:25:51;97882.47;;;16.30;99.64
12879;BME280;20617;49.476;10.986;2022-09-09T04:27:56;97881.75;;;16.28;100.00
12879;BME280;20617;49.476;10.986;2022-09-09T04:30:03;97881.13;;;16.24;100.00
12879;BME280;20617;49.476;10.986;2022-09-09T04:32:08;97875.34;;;16.19;100.00
12879;BME280;20617;49.476;10.986;2022-09-09T04:34:14;97874.00;;;16.14;100.00
12879;BME280;20617;49.476;10.986;2022-09-09T04:36:19;97872.22;;;16.14;100.00
12879;BME280;20617;49.476;10.986;2022-09-09T04:38:28;97871.38;;;16.14;100.00
12879;BME280;20617;49.476;10.986;2022-09-09T04:40:33;97868.97;;;16.11;100.00
12879;BME280;20617;49.476;10.986;2022-09-09T04:42:41;97875.50;;;16.05;100.00
12879;BME280;20617;49.476;10.986;2022-09-09T04:44:48;97873.09;;;16.02;100.00
12879;BME280;20617;49.476;10.986;2022-09-09T04:46:53;97868.16;;;15.97;100.00
12879;BME280;20617;49.476;10.986;2022-09-09T04:48:58;97871.84;;;15.95;100.00
12879;BME280;20617;49.476;10.986;2022-09-09T04:51:09;97870.28;;;15.92;100.00
12879;BME280;20617;49.476;10.986;2022-09-09T04:53:16;97875.09;;;15.98;100.00
12879;BME280;20617;49.476;10.986;2022-09-09T04:55:21;97876.53;;;16.02;100.00
12879;BME280;20617;49.476;10.986;2022-09-09T04:57:26;97881.56;;;16.05;100.00
12879;BME280;20617;49.476;10.986;2022-09-09T04:59:33;97889.03;;;16.12;100.00
12879;BME280;20617;49.476;10.986;2022-09-09T05:01:38;97893.22;;;16.14;100.00
12879;BME280;20617;49.476;10.986;2022-09-09T05:03:43;97887.88;;;16.16;100.00
12879;BME280;20617;49.476;10.986;2022-09-09T05:05:52;97892.06;;;16.18;100.00
12879;BME280;20617;49.476;10.986;2022-09-09T05:08:01;97894.47;;;16.21;100.00
12879;BME280;20617;49.476;10.986;2022-09-09T05:10:07;97895.44;;;16.20;100.00
12879;BME280;20617;49.476;10.986;2022-09-09T05:12:12;97902.56;;;16.18;100.00
12879;BME280;20617;49.476;10.986;2022-09-09T05:14:24;97912.25;;;16.18;100.00
12879;BME280;20617;49.476;10.986;2022-09-09T05:16:31;97917.91;;;16.24;100.00
12879;BME280;20617;49.476;10.986;2022-09-09T05:18:37;97914.00;;;16.30;100.00
12879;BME280;20617;49.476;10.986;2022-09-09T05:20:42;97918.91;;;16.35;100.00
12879;BME280;20617;49.476;10.986;2022-09-09T05:22:47;97915.34;;;16.36;100.00
12879;BME280;20617;49.476;10.986;2022-09-09T05:24:52;97908.22;;;16.38;100.00
12879;BME280;20617;49.476;10.986;2022-09-09T05:26:57;97915.22;;;16.37;100.00
12879;BME280;20617;49.476;10.986;2022-09-09T05:29:04;97923.25;;;16.36;100.00
12879;BME280;20617;49.476;10.986;2022-09-09T05:31:11;97922.19;;;16.38;100.00
12879;BME280;20617;49.476;10.986;2022-09-09T05:33:20;97916.09;;;16.38;100.00
12879;BME280;20617;49.476;10.986;2022-09-09T05:35:27;97912.28;;;16.42;100.00
12879;BME280;20617;49.476;10.986;2022-09-09T05:37:31;97919.72;;;16.48;99.65
12879;BME280;20617;49.476;10.986;2022-09-09T05:39:37;97919.41;;;16.52;98.37
12879;BME280;20617;49.476;10.986;2022-09-09T05:41:42;97920.75;;;16.58;97.87
12879;BME280;20617;49.476;10.986;2022-09-09T05:43:46;97923.66;;;16.66;97.50
12879;BME280;20617;49.476;10.986;2022-09-09T05:46:03;97922.38;;;16.72;95.35
12879;BME280;20617;49.476;10.986;2022-09-09T05:48:09;97923.75;;;16.78;95.64
12879;BME280;20617;49.476;10.986;2022-09-09T05:50:17;97923.00;;;16.75;94.83
12879;BME280;20617;49.476;10.986;2022-09-09T05:52:22;97927.53;;;16.73;95.11
12879;BME280;20617;49.476;10.986;2022-09-09T05:54:29;97922.16;;;16.75;94.66
12879;BME280;20617;49.476;10.986;2022-09-09T05:56:34;97923.94;;;16.74;94.90
12879;BME280;20617;49.476;10.986;2022-09-09T05:58:41;97922.16;;;16.75;95.10
12879;BME280;20617;49.476;10.986;2022-09-09T06:00:49;97919.53;;;16.75;95.02
12879;BME280;20617;49.476;10.986;2022-09-09T06:02:53;97915.22;;;16.74;94.75
12879;BME280;20617;49.476;10.986;2022-09-09T06:05:00;97911.03;;;16.71;94.39
12879;BME280;20617;49.476;10.986;2022-09-09T06:07:07;97912.09;;;16.69;94.18
12879;BME280;20617;49.476;10.986;2022-09-09T06:09:12;97912.09;;;16.69;94.16
12879;BME280;20617;49.476;10.986;2022-09-09T06:11:19;97909.59;;;16.67;93.59
12879;BME280;20617;49.476;10.986;2022-09-09T06:13:24;97916.63;;;16.67;93.36
12879;BME280;20617;49.476;10.986;2022-09-09T06:15:29;97912.09;;;16.69;93.25
12879;BME280;20617;49.476;10.986;2022-09-09T06:17:33;97919.03;;;16.70;92.74
12879;BME280;20617;49.476;10.986;2022-09-09T06:19:38;97916.00;;;16.76;93.07
12879;BME280;20617;49.476;10.986;2022-09-09T06:21:43;97908.94;;;16.77;91.69
12879;BME280;20617;49.476;10.986;2022-09-09T06:23:53;97910.38;;;16.81;91.15
12879;BME280;20617;49.476;10.986;2022-09-09T06:26:04;97914.13;;;16.89;90.96
12879;BME280;20617;49.476;10.986;2022-09-09T06:28:10;97916.81;;;17.01;90.37
12879;BME280;20617;49.476;10.986;2022-09-09T06:30:15;97907.91;;;17.14;88.86
12879;BME280;20617;49.476;10.986;2022-09-09T06:32:21;97907.81;;;17.27;88.61
12879;BME280;20617;49.476;10.986;2022-09-09T06:34:25;97914.19;;;17.36;87.57
12879;BME280;20617;49.476;10.986;2022-09-09T06:36:34;97910.75;;;17.47;86.37
12879;BME280;20617;49.476;10.986;2022-09-09T06:38:39;97911.00;;;17.55;85.74
12879;BME280;20617;49.476;10.986;2022-09-09T06:40:53;97913.66;;;17.66;84.31
12879;BME280;20617;49.476;10.986;2022-09-09T06:43:00;97920.13;;;17.73;84.05
12879;BME280;20617;49.476;10.986;2022-09-09T06:45:15;97923.16;;;17.80;82.79
12879;BME280;20617;49.476;10.986;2022-09-09T06:47:28;97921.75;;;17.87;82.52
12879;BME280;20617;49.476;10.986;2022-09-09T06:49:33;97924.72;;;17.94;82.03
12879;BME280;20617;49.476;10.986;2022-09-09T06:51:41;97930.72;;;17.96;81.39
12879;BME280;20617;49.476;10.986;2022-09-09T06:53:51;97922.22;;;18.03;81.03
12879;BME280;20617;49.476;10.986;2022-09-09T06:56:00;97929.66;;;18.09;81.09
12879;BME280;20617;49.476;10.986;2022-09-09T06:58:08;97931.31;;;18.10;80.30
12879;BME280;20617;49.476;10.986;2022-09-09T07:00:13;97932.41;;;18.08;80.38
12879;BME280;20617;49.476;10.986;2022-09-09T07:02:18;97942.09;;;18.07;79.93
12879;BME280;20617;49.476;10.986;2022-09-09T07:04:23;97937.31;;;18.01;79.76
12879;BME280;20617;49.476;10.986;2022-09-09T07:06:30;97937.41;;;18.00;80.12
12879;BME280;20617;49.476;10.986;2022-09-09T07:08:36;97940.53;;;18.05;80.46
12879;BME280;20617;49.476;10.986;2022-09-09T07:10:41;97935.03;;;18.08;79.61
12879;BME280;20617;49.476;10.986;2022-09-09T07:12:52;97938.50;;;18.08;79.49
12879;BME280;20617;49.476;10.986;2022-09-09T07:14:59;97935.63;;;18.12;79.52
12879;BME280;20617;49.476;10.986;2022-09-09T07:17:04;97938.88;;;18.15;79.39
12879;BME280;20617;49.476;10.986;2022-09-09T07:19:13;97939.22;;;18.10;78.82
12879;BME280;20617;49.476;10.986;2022-09-09T07:21:19;97936.94;;;18.06;79.34
12879;BME280;20617;49.476;10.986;2022-09-09T07:23:24;97946.78;;;18.04;79.40
12879;BME280;20617;49.476;10.986;2022-09-09T07:25:34;97944.25;;;18.02;79.72
12879;BME280;20617;49.476;10.986;2022-09-09T07:27:38;97946.28;;;17.99;80.12
12879;BME280;20617;49.476;10.986;2022-09-09T07:29:46;97944.13;;;17.93;80.06
12879;BME280;20617;49.476;10.986;2022-09-09T07:31:52;97950.47;;;17.90;80.20
12879;BME280;20617;49.476;10.986;2022-09-09T07:34:02;97951.78;;;17.96;80.08
12879;BME280;20617;49.476;10.986;2022-09-09T07:36:10;97944.84;;;18.06;80.05
12879;BME280;20617;49.476;10.986;2022-09-09T07:38:17;97948.31;;;18.18;79.17
12879;BME280;20617;49.476;10.986;2022-09-09T07:40:22;97945.44;;;18.21;79.00
12879;BME280;20617;49.476;10.986;2022-09-09T07:42:27;97946.53;;;18.18;78.90
12879;BME280;20617;49.476;10.986;2022-09-09T07:44:32;97946.41;;;18.20;78.63
12879;BME280;20617;49.476;10.986;2022-09-09T07:46:45;97943.44;;;18.24;78.93
12879;BME280;20617;49.476;10.986;2022-09-09T07:48:56;97944.59;;;18.31;78.25
12879;BME280;20617;49.476;10.986;2022-09-09T07:51:05;97940.41;;;18.40;78.26
12879;BME280;20617;49.476;10.986;2022-09-09T07:53:10;97949.78;;;18.44;78.22
12879;BME280;20617;49.476;10.986;2022-09-09T07:55:16;97947.81;;;18.58;77.98
12879;BME280;20617;49.476;10.986;2022-09-09T07:57:21;97953.44;;;18.75;77.72
12879;BME280;20617;49.476;10.986;2022-09-09T07:59:27;97954.41;;;18.86;77.45
12879;BME280;20617;49.476;10.986;2022-09-09T08:01:35;97946.31;;;18.98;77.66
12879;BME280;20617;49.476;10.986;2022-09-09T08:03:46;97947.69;;;19.14;76.71
12879;BME280;20617;49.476;10.986;2022-09-09T08:06:00;97946.56;;;19.28;75.75
12879;BME280;20617;49.476;10.986;2022-09-09T08:08:05;97949.66;;;19.33;74.73
12879;BME280;20617;49.476;10.986;2022-09-09T08:10:10;97947.91;;;19.43;74.73
12879;BME280;20617;49.476;10.986;2022-09-09T08:12:16;97943.66;;;19.52;74.11
12879;BME280;20617;49.476;10.986;2022-09-09T08:14:22;97946.50;;;19.60;73.62
12879;BME280;20617;49.476;10.986;2022-09-09T08:16:29;97946.75;;;19.68;73.25
12879;BME280;20617;49.476;10.986;2022-09-09T08:18:35;97935.28;;;19.79;72.97
12879;BME280;20617;49.476;10.986;2022-09-09T08:20:43;97940.50;;;19.90;71.91
12879;BME280;20617;49.476;10.986;2022-09-09T08:22:49;97934.69;;;19.96;71.30
12879;BME280;20617;49.476;10.986;2022-09-09T08:24:54;97935.81;;;20.03;71.12
12879;BME280;20617;49.476;10.986;2022-09-09T08:26:59;97929.63;;;20.14;70.79
12879;BME280;20617;49.476;10.986;2022-09-09T08:29:07;97932.69;;;20.19;70.16
12879;BME280;20617;49.476;10.986;2022-09-09T08:31:14;97937.75;;;20.32;69.93
12879;BME280;20617;49.476;10.986;2022-09-09T08:33:19;97934.19;;;20.43;69.54
12879;BME280;20617;49.476;10.986;2022-09-09T08:35:24;97929.72;;;20.43;67.07
12879;BME280;20617;49.476;10.986;2022-09-09T08:37:35;97931.69;;;20.51;67.36
12879;BME280;20617;49.476;10.986;2022-09-09T08:39:40;97929.38;;;20.57;67.04
12879;BME280;20617;49.476;10.986;2022-09-09T08:44:25;97931.81;;;20.80;65.88
12879;BME280;20617;49.476;10.986;2022-09-09T08:46:46;97937.94;;;20.90;65.04
12879;BME280;20617;49.476;10.986;2022-09-09T08:49:01;97941.28;;;20.92;63.98
12879;BME280;20617;49.476;10.986;2022-09-09T08:51:11;97941.44;;;21.00;63.43
12879;BME280;20617;49.476;10.986;2022-09-09T08:53:23;97940.59;;;21.10;62.62
12879;BME280;20617;49.476;10.986;2022-09-09T08:55:38;97936.69;;;21.14;62.52
12879;BME280;20617;49.476;10.986;2022-09-09T08:57:45;97932.38;;;21.22;62.62
12879;BME280;20617;49.476;10.986;2022-09-09T08:59:50;97925.84;;;21.27;61.19
12879;BME280;20617;49.476;10.986;2022-09-09T09:02:03;97935.72;;;21.34;60.23
12879;BME280;20617;49.476;10.986;2022-09-09T09:04:31;97935.88;;;21.33;60.03
12879;BME280;20617;49.476;10.986;2022-09-09T09:06:46;97936.16;;;21.39;60.21
12879;BME280;20617;49.476;10.986;2022-09-09T09:09:01;97937.81;;;21.60;59.83
12879;BME280;20617;49.476;10.986;2022-09-09T09:11:07;97943.94;;;21.70;58.79
12879;BME280;20617;49.476;10.986;2022-09-09T09:13:17;97939.88;;;21.85;57.79
12879;BME280;20617;49.476;10.986;2022-09-09T09:15:26;97939.97;;;21.93;58.45
12879;BME280;20617;49.476;10.986;2022-09-09T09:17:37;97939.13;;;22.03;57.52
12879;BME280;20617;49.476;10.986;2022-09-09T09:19:43;97939.78;;;22.14;57.97
12879;BME280;20617;49.476;10.986;2022-09-09T09:21:52;97935.00;;;22.28;57.14
12879;BME280;20617;49.476;10.986;2022-09-09T09:24:05;97940.00;;;22.31;55.59
12879;BME280;20617;49.476;10.986;2022-09-09T09:26:11;97932.56;;;22.44;55.62
12879;BME280;20617;49.476;10.986;2022-09-09T09:28:18;97924.53;;;22.54;54.37
12879;BME280;20617;49.476;10.986;2022-09-09T09:30:31;97924.50;;;22.64;54.46
12879;BME280;20617;49.476;10.986;2022-09-09T09:32:51;97915.00;;;22.61;53.98
12879;BME280;20617;49.476;10.986;2022-09-09T09:34:57;97916.44;;;22.55;52.72
12879;BME280;20617;49.476;10.986;2022-09-09T09:37:15;97912.25;;;22.53;52.05
12879;BME280;20617;49.476;10.986;2022-09-09T09:39:26;97913.00;;;22.45;51.42
12879;BME280;20617;49.476;10.986;2022-09-09T09:41:52;97916.88;;;22.51;52.16
12879;BME280;20617;49.476;10.986;2022-09-09T09:43:56;97900.25;;;22.76;52.66
12879;BME280;20617;49.476;10.986;2022-09-09T09:46:04;97906.41;;;22.95;52.30
12879;BME280;20617;49.476;10.986;2022-09-09T09:48:20;97907.50;;;23.02;51.03
12879;BME280;20617;49.476;10.986;2022-09-09T09:50:25;97905.53;;;23.04;50.65
12879;BME280;20617;49.476;10.986;2022-09-09T09:52:31;97909.00;;;23.22;51.20
12879;BME280;20617;49.476;10.986;2022-09-09T09:54:43;97911.44;;;23.34;50.43
12879;BME280;20617;49.476;10.986;2022-09-09T09:56:48;97903.91;;;23.29;50.44
12879;BME280;20617;49.476;10.986;2022-09-09T09:58:55;97902.47;;;23.35;50.73
12879;BME280;20617;49.476;10.986;2022-09-09T10:01:20;97905.28;;;23.33;50.54
12879;BME280;20617;49.476;10.986;2022-09-09T10:03:28;97909.75;;;23.50;51.01
12879;BME280;20617;49.476;10.986;2022-09-09T10:05:35;97909.78;;;23.77;50.49
12879;BME280;20617;49.476;10.986;2022-09-09T10:07:45;97911.69;;;23.92;49.74
12879;BME280;20617;49.476;10.986;2022-09-09T10:09:54;97905.44;;;24.02;49.20
12879;BME280;20617;49.476;10.986;2022-09-09T10:12:05;97903.41;;;23.95;48.58
12879;BME280;20617;49.476;10.986;2022-09-09T10:14:20;97897.41;;;23.93;49.46
12879;BME280;20617;49.476;10.986;2022-09-09T10:16:37;97896.91;;;23.90;49.09
12879;BME280;20617;49.476;10.986;2022-09-09T10:18:57;97887.09;;;23.90;49.18
12879;BME280;20617;49.476;10.986;2022-09-09T10:21:13;97887.63;;;23.94;49.61
12879;BME280;20617;49.476;10.986;2022-09-09T10:23:32;97884.44;;;23.90;48.73
12879;BME280;20617;49.476;10.986;2022-09-09T10:28:51;97877.66;;;23.96;47.86
12879;BME280;20617;49.476;10.986;2022-09-09T10:31:11;97881.00;;;23.98;47.48
12879;BME280;20617;49.476;10.986;2022-09-09T10:33:24;97879.53;;;24.04;46.96
12879;BME280;20617;49.476;10.986;2022-09-09T10:35:35;97876.28;;;24.18;47.23
12879;BME280;20617;49.476;10.986;2022-09-09T10:37:55;97872.13;;;24.24;46.39
12879;BME280;20617;49.476;10.986;2022-09-09T10:40:18;97872.31;;;24.30;46.73
12879;BME280;20617;49.476;10.986;2022-09-09T10:42:30;97865.41;;;24.46;46.15
12879;BME280;20617;49.476;10.986;2022-09-09T10:44:50;97863.69;;;24.36;46.37
12879;BME280;20617;49.476;10.986;2022-09-09T10:47:13;97868.56;;;24.49;45.55
12879;BME280;20617;49.476;10.986;2022-09-09T10:49:33;97866.78;;;24.66;44.54
12879;BME280;20617;49.476;10.986;2022-09-09T10:51:53;97868.16;;;24.70;43.88
12879;BME280;20617;49.476;10.986;2022-09-09T10:54:14;97863.47;;;24.64;44.05
12879;BME280;20617;49.476;10.986;2022-09-09T10:56:24;97859.81;;;24.65;44.46
12879;BME280;20617;49.476;10.986;2022-09-09T10:58:37;97858.66;;;24.68;44.06
12879;BME280;20617;49.476;10.986;2022-09-09T11:00:48;97853.19;;;24.77;44.43
12879;BME280;20617;49.476;10.986;2022-09-09T11:03:00;97860.03;;;24.88;44.75
12879;BME280;20617;49.476;10.986;2022-09-09T11:05:10;97865.84;;;24.92;44.19
12879;BME280;20617;49.476;10.986;2022-09-09T11:07:26;97858.34;;;25.03;44.10
12879;BME280;20617;49.476;10.986;2022-09-09T11:09:38;97859.06;;;25.22;43.44
12879;BME280;20617;49.476;10.986;2022-09-09T11:11:49;97853.06;;;25.28;42.20
12879;BME280;20617;49.476;10.986;2022-09-09T11:14:02;97861.41;;;25.17;41.74
12879;BME280;20617;49.476;10.986;2022-09-09T11:16:19;97857.69;;;25.10;42.24
12879;BME280;20617;49.476;10.986;2022-09-09T11:18:29;97852.88;;;24.97;42.52
12879;BME280;20617;49.476;10.986;2022-09-09T11:20:36;97856.00;;;24.92;42.46